createdAt,value
2023-03-11T00:00:05.290Z,76.57
2023-03-11T00:01:05.260Z,76.37
2023-03-11T00:02:05.339Z,76.79
2023-03-11T00:03:05.231Z,76.89
2023-03-11T00:04:05.220Z,77.00
2023-03-11T00:05:05.291Z,76.47
2023-03-11T00:06:05.221Z,76.16
2023-03-11T00:07:05.220Z,76.06
2023-03-11T00:08:05.209Z,76.16
2023-03-11T00:09:05.231Z,75.95
2023-03-11T00:10:05.165Z,76.57
2023-03-11T00:11:05.200Z,76.37
2023-03-11T00:12:05.158Z,76.37
2023-03-11T00:13:05.145Z,76.37
2023-03-11T00:14:05.129Z,76.79
2023-03-11T00:15:05.133Z,76.57
2023-03-11T00:16:05.100Z,77.00
2023-03-11T00:17:05.109Z,77.10
2023-03-11T00:18:05.084Z,76.68
2023-03-11T00:19:05.072Z,77.00
2023-03-11T00:20:05.060Z,77.20
2023-03-11T00:21:05.059Z,77.31
2023-03-11T00:22:05.063Z,77.20
2023-03-11T00:23:05.067Z,77.20
2023-03-11T00:24:05.023Z,77.41
2023-03-11T00:25:05.012Z,78.04
2023-03-11T00:26:05.013Z,77.94
2023-03-11T00:27:05.006Z,77.41
2023-03-11T00:28:04.987Z,77.27
2023-03-11T00:29:05.014Z,76.96
2023-03-11T00:30:05.018Z,76.75
2023-03-11T00:31:05.049Z,77.58
2023-03-11T00:32:04.928Z,78.00
2023-03-11T00:33:04.924Z,77.20
2023-03-11T00:34:04.919Z,77.00
2023-03-11T00:35:04.958Z,77.62
2023-03-11T00:36:04.922Z,78.25
2023-03-11T00:37:04.885Z,78.97
2023-03-11T00:38:04.857Z,79.19
2023-03-11T00:39:04.851Z,78.87
2023-03-11T00:40:04.842Z,78.77
2023-03-11T00:41:04.874Z,79.08
2023-03-11T00:42:04.818Z,79.19
2023-03-11T00:43:04.821Z,78.87
2023-03-11T00:44:04.814Z,78.97
2023-03-11T00:45:04.798Z,79.60
2023-03-11T00:46:04.863Z,79.71
2023-03-11T00:47:04.833Z,79.71
2023-03-11T00:48:04.784Z,80.23
2023-03-11T00:49:04.760Z,79.71
2023-03-11T00:50:04.753Z,80.05
2023-03-11T00:51:04.755Z,79.71
2023-03-11T00:52:04.729Z,79.50
2023-03-11T00:53:05.078Z,79.08
2023-03-11T00:54:04.702Z,78.97
2023-03-11T00:55:04.693Z,78.87
2023-03-11T00:56:04.685Z,78.77
2023-03-11T00:57:04.669Z,79.29
2023-03-11T00:58:04.659Z,78.97
2023-03-11T00:59:04.670Z,78.87
2023-03-11T01:00:04.685Z,79.43
2023-03-11T01:01:04.669Z,79.39
2023-03-11T01:02:04.641Z,79.91
2023-03-11T01:03:04.616Z,79.81
2023-03-11T01:04:04.649Z,78.87
2023-03-11T01:05:04.609Z,79.01
2023-03-11T01:06:04.579Z,79.60
2023-03-11T01:07:04.576Z,79.64
2023-03-11T01:08:04.554Z,79.33
2023-03-11T01:09:04.550Z,79.53
2023-03-11T01:10:04.564Z,79.01
2023-03-11T01:11:04.545Z,79.60
2023-03-11T01:12:04.564Z,79.43
2023-03-11T01:13:04.523Z,79.85
2023-03-11T01:14:04.517Z,80.05
2023-03-11T01:15:04.514Z,80.44
2023-03-11T01:16:04.528Z,80.75
2023-03-11T01:17:04.490Z,78.91
2023-03-11T01:18:04.475Z,79.08
2023-03-11T01:19:04.441Z,79.01
2023-03-11T01:20:04.427Z,79.64
2023-03-11T01:21:04.431Z,79.74
2023-03-11T01:22:04.423Z,80.68
2023-03-11T01:23:04.477Z,80.58
2023-03-11T01:24:04.393Z,81.10
2023-03-11T01:25:04.401Z,81.41
2023-03-11T01:26:04.364Z,80.99
2023-03-11T01:27:04.375Z,81.73
2023-03-11T01:28:04.370Z,81.21
2023-03-11T01:29:04.377Z,81.62
2023-03-11T01:30:04.339Z,82.25
2023-03-11T01:31:04.344Z,82.35
2023-03-11T01:32:04.328Z,81.93
2023-03-11T01:33:04.298Z,82.35
2023-03-11T01:34:04.295Z,82.14
2023-03-11T01:35:04.306Z,82.56
2023-03-11T01:36:04.376Z,82.46
2023-03-11T01:37:04.262Z,82.87
2023-03-11T01:38:04.259Z,83.54
2023-03-11T01:39:04.254Z,84.48
2023-03-11T01:40:04.223Z,84.17
2023-03-11T01:41:04.248Z,84.89
2023-03-11T01:42:04.210Z,85.73
2023-03-11T01:43:04.196Z,86.25
2023-03-11T01:44:04.171Z,86.05
2023-03-11T01:45:04.188Z,86.57
2023-03-11T01:46:04.240Z,86.67
2023-03-11T01:47:04.174Z,87.02
2023-03-11T01:48:04.152Z,87.02
2023-03-11T01:49:04.130Z,86.82
2023-03-11T01:50:04.129Z,86.40
2023-03-11T01:51:04.124Z,85.77
2023-03-11T01:52:04.102Z,85.56
2023-03-11T01:53:04.120Z,85.56
2023-03-11T01:54:04.472Z,85.25
2023-03-11T01:55:04.073Z,85.46
2023-03-11T01:56:04.066Z,85.77
2023-03-11T01:57:04.053Z,85.98
2023-03-11T01:58:04.036Z,85.14
2023-03-11T01:59:04.030Z,85.04
2023-03-11T02:00:04.027Z,85.46
2023-03-11T02:01:04.012Z,85.46
2023-03-11T02:02:04.003Z,85.56
2023-03-11T02:03:03.999Z,85.46
2023-03-11T02:04:03.970Z,85.14
2023-03-11T02:05:03.982Z,84.79
2023-03-11T02:06:03.983Z,85.11
2023-03-11T02:07:03.952Z,84.79
2023-03-11T02:08:03.942Z,85.00
2023-03-11T02:09:03.931Z,84.89
2023-03-11T02:10:03.924Z,84.89
2023-03-11T02:11:03.920Z,84.79
2023-03-11T02:12:03.920Z,84.58
2023-03-11T02:13:03.881Z,85.31
2023-03-11T02:14:03.870Z,85.42
2023-03-11T02:15:03.869Z,86.15
2023-03-11T02:16:03.913Z,85.94
2023-03-11T02:17:03.825Z,85.88
2023-03-11T02:18:03.826Z,86.61
2023-03-11T02:19:03.806Z,87.34
2023-03-11T02:20:03.802Z,88.07
2023-03-11T02:21:03.802Z,88.49
2023-03-11T02:22:03.826Z,88.80
2023-03-11T02:23:03.797Z,88.90
2023-03-11T02:24:03.779Z,88.80
2023-03-11T02:25:03.774Z,89.11
2023-03-11T02:26:03.753Z,89.36
2023-03-11T02:27:03.756Z,89.47
2023-03-11T02:28:03.763Z,89.58
2023-03-11T02:29:03.724Z,89.68
2023-03-11T02:30:03.712Z,89.15
2023-03-11T02:31:03.787Z,88.95
2023-03-11T02:32:03.685Z,89.15
2023-03-11T02:33:03.710Z,89.36
2023-03-11T02:34:03.660Z,88.21
2023-03-11T02:35:03.651Z,87.80
2023-03-11T02:36:03.696Z,87.80
2023-03-11T02:37:03.628Z,88.21
2023-03-11T02:38:03.645Z,88.21
2023-03-11T02:39:03.645Z,87.90
2023-03-11T02:40:03.621Z,87.69
2023-03-11T02:41:03.599Z,87.27
2023-03-11T02:42:03.601Z,87.80
2023-03-11T02:43:03.618Z,88.01
2023-03-11T02:44:03.598Z,88.01
2023-03-11T02:45:03.564Z,87.90
2023-03-11T02:46:03.535Z,87.90
2023-03-11T02:47:03.553Z,87.38
2023-03-11T02:48:03.522Z,86.75
2023-03-11T02:49:03.572Z,87.17
2023-03-11T02:50:03.502Z,87.23
2023-03-11T02:51:03.498Z,87.07
2023-03-11T02:52:03.501Z,86.96
2023-03-11T02:53:03.476Z,86.54
2023-03-11T02:54:03.487Z,86.29
2023-03-11T02:55:03.506Z,86.65
2023-03-11T02:56:03.450Z,86.75
2023-03-11T02:57:03.452Z,86.33
2023-03-11T02:58:03.442Z,86.02
2023-03-11T02:59:03.424Z,86.02
2023-03-11T03:00:03.419Z,86.33
2023-03-11T03:01:03.546Z,87.07
2023-03-11T03:02:03.378Z,87.38
2023-03-11T03:03:03.382Z,87.80
2023-03-11T03:04:03.547Z,87.69
2023-03-11T03:05:03.364Z,87.80
2023-03-11T03:06:03.381Z,87.90
2023-03-11T03:07:03.347Z,88.01
2023-03-11T03:08:03.320Z,88.01
2023-03-11T03:09:03.321Z,87.69
2023-03-11T03:10:03.337Z,87.69
2023-03-11T03:11:03.312Z,88.11
2023-03-11T03:12:03.342Z,87.48
2023-03-11T03:13:03.289Z,87.17
2023-03-11T03:14:03.252Z,87.13
2023-03-11T03:15:03.257Z,86.19
2023-03-11T03:16:03.352Z,86.13
2023-03-11T03:17:03.397Z,86.40
2023-03-11T03:18:03.298Z,86.82
2023-03-11T03:19:03.227Z,86.82
2023-03-11T03:20:03.205Z,86.82
2023-03-11T03:21:03.215Z,86.29
2023-03-11T03:22:03.196Z,86.92
2023-03-11T03:23:03.191Z,86.29
2023-03-11T03:24:03.374Z,86.29
2023-03-11T03:25:03.166Z,86.82
2023-03-11T03:26:03.138Z,86.82
2023-03-11T03:27:03.142Z,86.82
2023-03-11T03:28:03.140Z,86.61
2023-03-11T03:29:03.160Z,86.51
2023-03-11T03:30:03.096Z,86.40
2023-03-11T03:31:03.095Z,86.29
2023-03-11T03:32:03.134Z,86.40
2023-03-11T03:33:03.087Z,86.19
2023-03-11T03:34:03.071Z,86.29
2023-03-11T03:35:03.118Z,86.40
2023-03-11T03:36:03.118Z,86.61
2023-03-11T03:37:03.050Z,86.71
2023-03-11T03:38:03.036Z,87.02
2023-03-11T03:39:03.030Z,86.92
2023-03-11T03:40:03.011Z,87.23
2023-03-11T03:41:03.020Z,87.13
2023-03-11T03:42:02.982Z,87.23
2023-03-11T03:43:02.970Z,87.65
2023-03-11T03:44:02.950Z,87.55
2023-03-11T03:45:02.948Z,87.86
2023-03-11T03:46:03.070Z,87.65
2023-03-11T03:47:02.954Z,87.86
2023-03-11T03:48:02.926Z,87.86
2023-03-11T03:49:02.924Z,87.86
2023-03-11T03:50:02.892Z,87.86
2023-03-11T03:51:02.909Z,87.34
2023-03-11T03:52:02.906Z,87.45
2023-03-11T03:53:02.880Z,87.34
2023-03-11T03:54:02.872Z,87.65
2023-03-11T03:55:02.860Z,87.86
2023-03-11T03:56:02.861Z,88.28
2023-03-11T03:57:02.850Z,88.28
2023-03-11T03:58:02.858Z,88.64
2023-03-11T03:59:02.828Z,88.74
2023-03-11T04:00:02.810Z,88.95
2023-03-11T04:01:02.817Z,89.26
2023-03-11T04:02:02.945Z,89.36
2023-03-11T04:03:02.998Z,89.36
2023-03-11T04:04:02.767Z,89.68
2023-03-11T04:05:02.759Z,89.58
2023-03-11T04:06:02.736Z,89.58
2023-03-11T04:07:02.731Z,89.15
2023-03-11T04:08:02.717Z,88.95
2023-03-11T04:09:02.764Z,88.95
2023-03-11T04:10:02.694Z,88.74
2023-03-11T04:11:02.706Z,88.64
2023-03-11T04:12:02.675Z,88.95
2023-03-11T04:13:02.681Z,88.32
2023-03-11T04:14:02.728Z,88.42
2023-03-11T04:15:02.701Z,88.53
2023-03-11T04:16:02.654Z,88.64
2023-03-11T04:17:02.758Z,88.01
2023-03-11T04:18:02.643Z,87.90
2023-03-11T04:19:02.618Z,88.11
2023-03-11T04:20:02.622Z,88.01
2023-03-11T04:21:02.607Z,87.90
2023-03-11T04:22:02.601Z,87.90
2023-03-11T04:23:02.597Z,88.32
2023-03-11T04:24:02.611Z,88.64
2023-03-11T04:25:02.560Z,89.05
2023-03-11T04:26:02.572Z,89.47
2023-03-11T04:27:02.564Z,90.24
2023-03-11T04:28:02.554Z,90.77
2023-03-11T04:29:02.568Z,90.97
2023-03-11T04:30:02.553Z,91.28
2023-03-11T04:31:02.631Z,91.50
2023-03-11T04:32:02.498Z,91.81
2023-03-11T04:33:02.482Z,92.02
2023-03-11T04:34:02.468Z,92.16
2023-03-11T04:35:02.476Z,92.27
2023-03-11T04:36:02.583Z,92.58
2023-03-11T04:37:02.423Z,92.69
2023-03-11T04:38:02.422Z,92.69
2023-03-11T04:39:02.458Z,92.69
2023-03-11T04:40:02.403Z,92.48
2023-03-11T04:41:02.402Z,92.16
2023-03-11T04:42:04.050Z,91.96
2023-03-11T04:43:02.374Z,91.96
2023-03-11T04:44:02.364Z,91.96
2023-03-11T04:45:02.387Z,91.54
2023-03-11T04:46:02.413Z,91.22
2023-03-11T04:47:02.332Z,91.02
2023-03-11T04:48:02.326Z,90.59
2023-03-11T04:49:02.313Z,89.97
2023-03-11T04:50:02.300Z,90.08
2023-03-11T04:51:02.302Z,90.18
2023-03-11T04:52:02.289Z,90.18
2023-03-11T04:53:02.253Z,90.59
2023-03-11T04:54:02.265Z,90.18
2023-03-11T04:55:02.270Z,90.18
2023-03-11T04:56:02.256Z,89.97
2023-03-11T04:57:02.271Z,89.65
2023-03-11T04:58:02.236Z,89.45
2023-03-11T04:59:02.218Z,89.23
2023-03-11T05:00:02.205Z,88.61
2023-03-11T05:01:02.230Z,88.40
2023-03-11T05:02:02.174Z,88.19
2023-03-11T05:03:02.427Z,88.29
2023-03-11T05:04:02.155Z,88.40
2023-03-11T05:05:02.215Z,87.77
2023-03-11T05:06:02.152Z,87.77
2023-03-11T05:07:02.130Z,87.88
2023-03-11T05:08:02.134Z,87.66
2023-03-11T05:09:02.137Z,87.66
2023-03-11T05:10:02.094Z,88.04
2023-03-11T05:11:02.096Z,87.73
2023-03-11T05:12:02.063Z,86.90
2023-03-11T05:13:02.083Z,86.37
2023-03-11T05:14:02.050Z,86.69
2023-03-11T05:15:02.091Z,86.79
2023-03-11T05:16:02.060Z,86.90
2023-03-11T05:17:02.033Z,86.79
2023-03-11T05:18:02.030Z,86.47
2023-03-11T05:19:01.994Z,86.37
2023-03-11T05:20:02.007Z,86.27
2023-03-11T05:21:02.029Z,85.74
2023-03-11T05:22:01.966Z,85.53
2023-03-11T05:23:01.966Z,85.53
2023-03-11T05:24:01.934Z,85.74
2023-03-11T05:25:01.929Z,85.64
2023-03-11T05:26:01.924Z,84.39
2023-03-11T05:27:01.953Z,83.86
2023-03-11T05:28:01.920Z,83.97
2023-03-11T05:29:01.911Z,83.65
2023-03-11T05:30:01.916Z,83.65
2023-03-11T05:31:01.968Z,83.86
2023-03-11T05:32:01.899Z,84.07
2023-03-11T05:33:01.871Z,84.39
2023-03-11T05:34:01.852Z,84.70
2023-03-11T05:35:01.865Z,84.56
2023-03-11T05:36:01.872Z,84.56
2023-03-11T05:37:03.127Z,84.56
2023-03-11T05:38:01.828Z,84.45
2023-03-11T05:39:01.794Z,84.34
2023-03-11T05:40:01.778Z,84.45
2023-03-11T05:41:01.791Z,84.14
2023-03-11T05:42:01.778Z,84.03
2023-03-11T05:43:01.775Z,84.14
2023-03-11T05:44:01.792Z,84.14
2023-03-11T05:45:01.741Z,84.14
2023-03-11T05:46:01.743Z,84.14
2023-03-11T05:47:01.850Z,84.14
2023-03-11T05:48:01.719Z,84.24
2023-03-11T05:49:01.733Z,84.34
2023-03-11T05:50:01.681Z,84.34
2023-03-11T05:51:01.673Z,84.66
2023-03-11T05:52:01.665Z,84.56
2023-03-11T05:53:01.657Z,83.93
2023-03-11T05:54:01.645Z,83.83
2023-03-11T05:55:01.885Z,83.83
2023-03-11T05:56:01.623Z,83.62
2023-03-11T05:57:01.622Z,82.99
2023-03-11T05:58:01.634Z,82.89
2023-03-11T05:59:01.583Z,83.09
2023-03-11T06:00:01.576Z,83.30
2023-03-11T06:01:01.586Z,83.51
2023-03-11T06:02:01.556Z,83.40
2023-03-11T06:03:01.545Z,83.51
2023-03-11T06:04:01.705Z,83.40
2023-03-11T06:05:01.634Z,83.40
2023-03-11T06:06:01.556Z,83.51
2023-03-11T06:07:01.524Z,83.51
2023-03-11T06:08:01.497Z,83.40
2023-03-11T06:09:01.489Z,82.57
2023-03-11T06:10:01.484Z,81.95
2023-03-11T06:11:01.470Z,82.26
2023-03-11T06:12:01.484Z,81.95
2023-03-11T06:13:01.462Z,81.67
2023-03-11T06:14:01.423Z,82.09
2023-03-11T06:15:01.419Z,82.09
2023-03-11T06:16:01.433Z,82.50
2023-03-11T06:17:01.404Z,82.60
2023-03-11T06:18:01.411Z,82.40
2023-03-11T06:19:01.374Z,82.50
2023-03-11T06:20:01.358Z,82.26
2023-03-11T06:21:01.367Z,82.05
2023-03-11T06:22:01.359Z,81.84
2023-03-11T06:23:01.373Z,81.32
2023-03-11T06:24:01.333Z,81.32
2023-03-11T06:25:01.335Z,81.42
2023-03-11T06:26:01.324Z,81.63
2023-03-11T06:27:01.318Z,81.95
2023-03-11T06:28:01.307Z,81.52
2023-03-11T06:29:01.311Z,81.73
2023-03-11T06:30:01.261Z,82.26
2023-03-11T06:31:01.259Z,82.26
2023-03-11T06:32:01.242Z,82.26
2023-03-11T06:33:01.232Z,82.15
2023-03-11T06:34:01.229Z,82.15
2023-03-11T06:35:01.259Z,82.46
2023-03-11T06:36:01.280Z,82.36
2023-03-11T06:37:01.191Z,82.36
2023-03-11T06:38:01.205Z,82.36
2023-03-11T06:39:01.213Z,81.95
2023-03-11T06:40:01.208Z,81.95
2023-03-11T06:41:01.167Z,81.84
2023-03-11T06:42:01.155Z,82.46
2023-03-11T06:43:01.142Z,83.40
2023-03-11T06:44:01.150Z,83.51
2023-03-11T06:45:01.127Z,82.89
2023-03-11T06:46:01.231Z,82.57
2023-03-11T06:47:01.100Z,82.78
2023-03-11T06:48:01.091Z,82.99
2023-03-11T06:49:01.081Z,83.20
2023-03-11T06:50:01.059Z,83.09
2023-03-11T06:51:01.053Z,82.78
2023-03-11T06:52:01.060Z,82.67
2023-03-11T06:53:01.038Z,82.57
2023-03-11T06:54:01.033Z,82.36
2023-03-11T06:55:01.025Z,82.26
2023-03-11T06:56:01.021Z,82.36
2023-03-11T06:57:01.031Z,82.36
2023-03-11T06:58:00.974Z,82.15
2023-03-11T06:59:00.970Z,82.01
2023-03-11T07:00:00.982Z,82.01
2023-03-11T07:01:01.057Z,81.80
2023-03-11T07:02:00.954Z,81.59
2023-03-11T07:03:00.933Z,81.49
2023-03-11T07:04:01.033Z,81.80
2023-03-11T07:05:00.925Z,82.32
2023-03-11T07:06:00.958Z,81.49
2023-03-11T07:07:00.912Z,81.07
2023-03-11T07:08:00.903Z,81.90
2023-03-11T07:09:00.896Z,82.12
2023-03-11T07:10:00.859Z,81.59
2023-03-11T07:11:00.847Z,80.65
2023-03-11T07:12:00.895Z,81.07
2023-03-11T07:13:00.825Z,81.70
2023-03-11T07:14:00.826Z,81.59
2023-03-11T07:15:00.832Z,81.70
2023-03-11T07:16:00.811Z,82.01
2023-03-11T07:17:00.843Z,81.59
2023-03-11T07:18:01.024Z,81.38
2023-03-11T07:19:00.791Z,81.70
2023-03-11T07:20:00.780Z,81.70
2023-03-11T07:21:00.747Z,81.70
2023-03-11T07:22:00.775Z,81.07
2023-03-11T07:23:00.730Z,80.34
2023-03-11T07:24:00.742Z,80.13
2023-03-11T07:25:00.731Z,80.13
2023-03-11T07:26:00.725Z,80.96
2023-03-11T07:27:00.678Z,80.44
2023-03-11T07:28:00.680Z,80.55
2023-03-11T07:29:00.680Z,80.44
2023-03-11T07:30:00.673Z,80.55
2023-03-11T07:31:00.664Z,81.18
2023-03-11T07:32:00.679Z,80.24
2023-03-11T07:33:00.798Z,79.50
2023-03-11T07:34:00.613Z,79.99
2023-03-11T07:35:00.619Z,79.99
2023-03-11T07:36:00.733Z,79.68
2023-03-11T07:37:00.619Z,78.84
2023-03-11T07:38:00.590Z,79.05
2023-03-11T07:39:03.118Z,80.13
2023-03-11T07:40:00.559Z,79.19
2023-03-11T07:41:00.552Z,79.15
2023-03-11T07:42:00.554Z,78.56
2023-03-11T07:43:00.584Z,79.08
2023-03-11T07:44:00.532Z,79.36
2023-03-11T07:45:00.507Z,78.84
2023-03-11T07:46:00.529Z,78.74
2023-03-11T07:47:00.497Z,78.11
2023-03-11T07:48:00.489Z,77.86
2023-03-11T07:49:00.514Z,77.66
2023-03-11T07:50:00.466Z,76.72
2023-03-11T07:51:00.441Z,76.40
2023-03-11T07:52:00.460Z,75.53
2023-03-11T07:53:00.425Z,74.91
2023-03-11T07:54:00.435Z,74.70
2023-03-11T07:55:00.459Z,75.12
2023-03-11T07:56:00.402Z,75.53
2023-03-11T07:57:00.414Z,73.66
2023-03-11T07:58:00.386Z,74.32
2023-03-11T07:59:00.367Z,74.80
2023-03-11T08:00:00.369Z,75.05
2023-03-11T08:01:00.359Z,75.32
2023-03-11T08:02:00.396Z,74.49
2023-03-11T08:03:00.339Z,74.28
2023-03-11T08:04:00.372Z,73.55
2023-03-11T08:05:00.300Z,73.76
2023-03-11T08:06:00.299Z,73.76
2023-03-11T08:07:00.295Z,73.76
2023-03-11T08:08:00.284Z,74.38
2023-03-11T08:09:00.299Z,73.76
2023-03-11T08:10:00.254Z,73.97
2023-03-11T08:11:00.244Z,73.24
2023-03-11T08:12:00.249Z,73.62
2023-03-11T08:13:00.226Z,73.83
2023-03-11T08:14:00.208Z,74.35
2023-03-11T08:15:00.220Z,73.41
2023-03-11T08:16:00.207Z,72.89
2023-03-11T08:17:00.183Z,71.12
2023-03-11T08:18:00.178Z,70.91
2023-03-11T08:19:00.161Z,71.75
2023-03-11T08:20:00.168Z,72.89
2023-03-11T08:21:00.375Z,73.93
2023-03-11T08:22:00.135Z,73.93
2023-03-11T08:23:00.147Z,72.51
2023-03-11T08:24:00.117Z,72.72
2023-03-11T08:25:00.121Z,72.30
2023-03-11T08:26:00.089Z,73.13
2023-03-11T08:27:00.107Z,73.55
2023-03-11T08:28:00.099Z,73.34
2023-03-11T08:29:00.057Z,73.13
2023-03-11T08:30:00.044Z,72.75
2023-03-11T08:31:00.053Z,72.85
2023-03-11T08:32:00.044Z,73.69
2023-03-11T08:33:00.036Z,73.27
2023-03-11T08:34:00.003Z,72.96
2023-03-11T08:34:59.999Z,72.64
2023-03-11T08:36:00.027Z,72.92
2023-03-11T08:36:59.976Z,72.72
2023-03-11T08:37:59.973Z,73.66
2023-03-11T08:39:00.028Z,74.49
2023-03-11T08:39:59.955Z,74.49
2023-03-11T08:40:59.926Z,73.31
2023-03-11T08:41:59.924Z,73.83
2023-03-11T08:42:59.895Z,74.74
2023-03-11T08:43:59.910Z,72.02
2023-03-11T08:44:59.900Z,72.86
2023-03-11T08:45:59.918Z,71.09
2023-03-11T08:46:59.889Z,72.13
2023-03-11T08:47:59.855Z,72.51
2023-03-11T08:49:01.314Z,70.43
2023-03-11T08:49:59.894Z,70.53
2023-03-11T08:50:59.846Z,70.12
2023-03-11T08:51:59.836Z,70.78
2023-03-11T08:52:59.823Z,70.46
2023-03-11T08:53:59.781Z,70.53
2023-03-11T08:54:59.768Z,70.78
2023-03-11T08:55:59.788Z,70.56
2023-03-11T08:56:59.745Z,70.88
2023-03-11T08:57:59.768Z,70.04
2023-03-11T08:58:59.796Z,70.56
2023-03-11T08:59:59.738Z,70.78
2023-03-11T09:00:59.731Z,70.78
2023-03-11T09:01:59.719Z,70.91
2023-03-11T09:02:59.784Z,71.75
2023-03-11T09:03:59.711Z,71.22
2023-03-11T09:04:59.719Z,71.33
2023-03-11T09:05:59.734Z,71.75
2023-03-11T09:06:59.654Z,72.06
2023-03-11T09:07:59.658Z,72.47
2023-03-11T09:08:59.658Z,71.85
2023-03-11T09:09:59.627Z,71.95
2023-03-11T09:10:59.631Z,71.53
2023-03-11T09:11:59.623Z,71.53
2023-03-11T09:12:59.579Z,70.50
2023-03-11T09:13:59.600Z,70.63
2023-03-11T09:14:59.564Z,70.73
2023-03-11T09:15:59.617Z,71.04
2023-03-11T09:16:59.570Z,71.36
2023-03-11T09:17:59.533Z,71.36
2023-03-11T09:18:59.538Z,71.67
2023-03-11T09:19:59.517Z,71.57
2023-03-11T09:20:59.518Z,71.98
2023-03-11T09:21:59.513Z,72.61
2023-03-11T09:22:59.719Z,70.63
2023-03-11T09:23:59.500Z,69.90
2023-03-11T09:24:59.475Z,70.73
2023-03-11T09:25:59.461Z,71.57
2023-03-11T09:26:59.439Z,72.61
2023-03-11T09:27:59.436Z,72.19
2023-03-11T09:28:59.440Z,72.51
2023-03-11T09:29:59.412Z,72.92
2023-03-11T09:30:59.398Z,71.78
2023-03-11T09:31:59.408Z,70.63
2023-03-11T09:32:59.374Z,70.53
2023-03-11T09:33:59.416Z,71.15
2023-03-11T09:34:59.360Z,71.36
2023-03-11T09:35:59.450Z,71.67
2023-03-11T09:36:59.337Z,71.57
2023-03-11T09:37:59.346Z,71.36
2023-03-11T09:38:59.375Z,72.51
2023-03-11T09:39:59.331Z,72.89
2023-03-11T09:40:59.314Z,71.53
2023-03-11T09:41:59.533Z,69.97
2023-03-11T09:42:59.319Z,69.27
2023-03-11T09:43:59.280Z,70.42
2023-03-11T09:44:59.298Z,69.90
2023-03-11T09:45:59.247Z,69.69
2023-03-11T09:46:59.284Z,70.00
2023-03-11T09:47:59.274Z,70.42
2023-03-11T09:48:59.259Z,70.21
2023-03-11T09:49:59.254Z,70.32
2023-03-11T09:50:59.265Z,70.63
2023-03-11T09:51:59.269Z,70.42
2023-03-11T09:52:59.173Z,70.00
2023-03-11T09:53:59.180Z,70.11
2023-03-11T09:54:59.161Z,70.63
2023-03-11T09:55:59.179Z,70.73
2023-03-11T09:56:59.117Z,70.63
2023-03-11T09:57:59.124Z,71.26
2023-03-11T09:58:59.106Z,71.04
2023-03-11T09:59:59.113Z,70.21
2023-03-11T10:00:59.075Z,69.79
2023-03-11T10:01:59.202Z,68.65
2023-03-11T10:02:59.079Z,69.48
2023-03-11T10:03:59.071Z,67.92
2023-03-11T10:04:59.057Z,67.08
2023-03-11T10:05:59.042Z,66.14
2023-03-11T10:06:59.025Z,67.08
2023-03-11T10:07:59.053Z,68.23
2023-03-11T10:08:58.993Z,68.85
2023-03-11T10:09:58.983Z,68.02
2023-03-11T10:10:58.977Z,66.04
2023-03-11T10:11:58.976Z,66.14
2023-03-11T10:12:58.959Z,67.40
2023-03-11T10:13:59.021Z,67.71
2023-03-11T10:14:58.950Z,68.23
2023-03-11T10:15:58.945Z,67.71
2023-03-11T10:16:58.935Z,66.63
2023-03-11T10:17:58.923Z,67.16
2023-03-11T10:18:58.900Z,66.95
2023-03-11T10:19:58.896Z,65.48
2023-03-11T10:20:58.875Z,65.70
2023-03-11T10:21:58.896Z,66.74
2023-03-11T10:22:58.844Z,65.48
2023-03-11T10:23:58.847Z,65.17
2023-03-11T10:24:58.844Z,65.07
2023-03-11T10:25:58.816Z,66.32
2023-03-11T10:26:58.816Z,65.67
2023-03-11T10:27:58.852Z,65.88
2023-03-11T10:28:58.798Z,63.79
2023-03-11T10:29:58.788Z,63.79
2023-03-11T10:30:58.773Z,64.31
2023-03-11T10:31:58.995Z,63.17
2023-03-11T10:32:58.753Z,63.92
2023-03-11T10:33:58.776Z,64.52
2023-03-11T10:34:58.739Z,64.00
2023-03-11T10:35:58.794Z,64.31
2023-03-11T10:36:58.732Z,63.68
2023-03-11T10:37:58.775Z,64.11
2023-03-11T10:38:58.689Z,64.73
2023-03-11T10:39:58.696Z,63.58
2023-03-11T10:40:58.659Z,64.42
2023-03-11T10:41:58.697Z,64.00
2023-03-11T10:42:58.660Z,63.79
2023-03-11T10:43:58.644Z,63.68
2023-03-11T10:44:58.629Z,63.17
2023-03-11T10:45:58.714Z,63.89
2023-03-11T10:46:58.612Z,63.89
2023-03-11T10:47:58.626Z,64.21
2023-03-11T10:48:58.610Z,65.11
2023-03-11T10:49:58.578Z,64.90
2023-03-11T10:50:58.576Z,63.76
2023-03-11T10:51:58.565Z,63.13
2023-03-11T10:52:58.539Z,64.49
2023-03-11T10:53:58.550Z,64.39
2023-03-11T10:54:58.518Z,64.98
2023-03-11T10:55:58.501Z,64.77
2023-03-11T10:56:58.489Z,61.96
2023-03-11T10:57:58.475Z,61.65
2023-03-11T10:58:58.484Z,63.42
2023-03-11T10:59:58.534Z,62.76
2023-03-11T11:00:58.490Z,60.68
2023-03-11T11:01:58.478Z,59.44
2023-03-11T11:02:58.463Z,58.91
2023-03-11T11:03:58.452Z,60.16
2023-03-11T11:04:58.422Z,62.01
2023-03-11T11:05:58.448Z,60.76
2023-03-11T11:06:58.411Z,58.97
2023-03-11T11:07:58.697Z,57.92
2023-03-11T11:08:58.373Z,58.34
2023-03-11T11:09:58.362Z,58.52
2023-03-11T11:10:58.352Z,57.79
2023-03-11T11:11:58.370Z,57.90
2023-03-11T11:12:58.342Z,58.81
2023-03-11T11:13:58.326Z,58.70
2023-03-11T11:14:58.334Z,58.29
2023-03-11T11:15:58.318Z,58.88
2023-03-11T11:16:58.454Z,59.50
2023-03-11T11:17:58.434Z,58.15
2023-03-11T11:18:58.324Z,55.79
2023-03-11T11:19:58.296Z,54.03
2023-03-11T11:20:58.265Z,52.67
2023-03-11T11:21:58.237Z,52.47
2023-03-11T11:22:58.246Z,54.75
2023-03-11T11:23:58.228Z,56.02
2023-03-11T11:24:58.300Z,56.96
2023-03-11T11:25:58.234Z,57.48
2023-03-11T11:26:58.204Z,57.69
2023-03-11T11:27:58.224Z,58.31
2023-03-11T11:28:58.216Z,57.51
2023-03-11T11:29:58.225Z,56.37
2023-03-11T11:30:58.292Z,55.92
2023-03-11T11:31:58.143Z,55.82
2023-03-11T11:32:58.168Z,56.65
2023-03-11T11:33:58.115Z,57.48
2023-03-11T11:34:58.114Z,55.71
2023-03-11T11:35:58.162Z,55.61
2023-03-11T11:36:58.099Z,54.78
2023-03-11T11:37:58.093Z,54.99
2023-03-11T11:38:58.090Z,55.51
2023-03-11T11:39:58.081Z,56.55
2023-03-11T11:40:58.089Z,57.38
2023-03-11T11:41:58.053Z,55.58
2023-03-11T11:42:58.051Z,56.00
2023-03-11T11:43:58.021Z,54.86
2023-03-11T11:44:58.027Z,52.78
2023-03-11T11:45:58.052Z,52.26
2023-03-11T11:46:58.019Z,52.26
2023-03-11T11:47:57.981Z,53.41
2023-03-11T11:48:57.976Z,54.44
2023-03-11T11:49:57.982Z,54.32
2023-03-11T11:50:57.955Z,53.59
2023-03-11T11:51:57.973Z,53.59
2023-03-11T11:52:57.932Z,52.86
2023-03-11T11:53:57.926Z,51.82
2023-03-11T11:54:57.910Z,52.75
2023-03-11T11:55:57.914Z,52.03
2023-03-11T11:56:57.911Z,50.81
2023-03-11T11:57:57.908Z,51.32
2023-03-11T11:58:57.917Z,51.32
2023-03-11T11:59:57.862Z,50.91
2023-03-11T12:00:57.918Z,50.39
2023-03-11T12:01:57.838Z,50.29
2023-03-11T12:02:57.836Z,49.48
2023-03-11T12:03:57.907Z,48.85
2023-03-11T12:04:57.843Z,48.33
2023-03-11T12:05:58.271Z,50.00
2023-03-11T12:06:57.797Z,52.05
2023-03-11T12:07:57.788Z,52.15
2023-03-11T12:08:57.766Z,53.17
2023-03-11T12:09:57.784Z,53.59
2023-03-11T12:10:57.753Z,54.50
2023-03-11T12:11:57.730Z,54.29
2023-03-11T12:12:57.738Z,53.23
2023-03-11T12:13:57.734Z,52.58
2023-03-11T12:14:57.753Z,49.68
2023-03-11T12:15:57.723Z,48.22
2023-03-11T12:16:57.696Z,46.25
2023-03-11T12:17:57.696Z,46.56
2023-03-11T12:18:57.661Z,45.63
2023-03-11T12:19:57.681Z,46.15
2023-03-11T12:20:57.665Z,46.98
2023-03-11T12:21:57.639Z,49.16
2023-03-11T12:22:57.665Z,50.61
2023-03-11T12:23:57.634Z,50.59
2023-03-11T12:24:57.604Z,49.44
2023-03-11T12:25:57.601Z,50.59
2023-03-11T12:26:57.596Z,51.21
2023-03-11T12:27:57.592Z,50.48
2023-03-11T12:28:57.617Z,50.59
2023-03-11T12:29:57.573Z,50.61
2023-03-11T12:30:57.623Z,49.88
2023-03-11T12:31:57.551Z,50.53
2023-03-11T12:32:57.530Z,48.97
2023-03-11T12:33:57.537Z,49.20
2023-03-11T12:34:57.523Z,50.24
2023-03-11T12:35:57.620Z,51.36
2023-03-11T12:36:57.503Z,50.34
2023-03-11T12:37:57.478Z,49.62
2023-03-11T12:38:57.482Z,49.82
2023-03-11T12:39:57.474Z,50.96
2023-03-11T12:40:57.466Z,51.07
2023-03-11T12:41:57.432Z,50.13
2023-03-11T12:42:57.442Z,48.58
2023-03-11T12:43:57.428Z,48.50
2023-03-11T12:44:57.407Z,49.33
2023-03-11T12:45:57.443Z,48.71
2023-03-11T12:46:57.492Z,49.93
2023-03-11T12:47:57.377Z,50.55
2023-03-11T12:48:57.379Z,50.12
2023-03-11T12:49:57.366Z,48.14
2023-03-11T12:50:57.344Z,47.52
2023-03-11T12:51:57.379Z,48.66